createdAt,value
2019-05-19T00:01:59.437Z,16.90
2019-05-19T00:04:40.455Z,16.80
2019-05-19T00:07:20.942Z,16.90
2019-05-19T00:10:01.573Z,16.80
2019-05-19T00:12:42.499Z,16.80
2019-05-19T00:15:23.752Z,16.80
2019-05-19T00:18:04.654Z,16.80
2019-05-19T00:20:45.722Z,16.80
2019-05-19T00:23:26.201Z,16.80
2019-05-19T00:26:06.957Z,16.80
2019-05-19T00:28:48.074Z,16.70
2019-05-19T00:31:28.766Z,16.70
2019-05-19T00:34:09.373Z,16.70
2019-05-19T00:36:50.360Z,16.60
2019-05-19T00:39:31.304Z,16.60
2019-05-19T00:42:12.004Z,16.60
2019-05-19T00:44:52.826Z,16.70
2019-05-19T00:47:33.634Z,16.70
2019-05-19T00:50:14.569Z,16.60
2019-05-19T00:52:55.409Z,16.60
2019-05-19T00:55:36.086Z,16.60
2019-05-19T00:58:16.887Z,16.60
2019-05-19T01:00:57.804Z,16.60
2019-05-19T01:03:38.106Z,16.60
2019-05-19T01:06:19.005Z,16.60
2019-05-19T01:08:59.818Z,16.60
2019-05-19T01:11:40.370Z,16.60
2019-05-19T01:14:08.969Z,16.50
2019-05-19T01:16:56.832Z,16.60
2019-05-19T01:19:55.624Z,16.60
2019-05-19T01:22:34.556Z,16.60
2019-05-19T01:25:22.326Z,16.50
2019-05-19T01:28:10.136Z,16.50
2019-05-19T01:30:57.981Z,16.50
2019-05-19T01:33:45.773Z,16.50
2019-05-19T01:36:33.916Z,16.50
2019-05-19T01:39:21.710Z,16.50
2019-05-19T01:42:09.585Z,16.50
2019-05-19T01:44:57.371Z,16.50
2019-05-19T01:47:38.235Z,16.50
2019-05-19T01:50:19.090Z,16.50
2019-05-19T01:52:59.563Z,16.60
2019-05-19T01:55:40.294Z,16.60
2019-05-19T01:58:21.211Z,16.60
2019-05-19T02:01:01.644Z,16.50
2019-05-19T02:03:42.258Z,16.50
2019-05-19T02:06:23.151Z,16.50
2019-05-19T02:09:04.841Z,16.50
2019-05-19T02:11:45.919Z,16.50
2019-05-19T02:14:26.799Z,16.50
2019-05-19T02:17:07.929Z,16.50
2019-05-19T02:19:48.467Z,16.60
2019-05-19T02:22:29.269Z,16.50
2019-05-19T02:25:09.625Z,16.50
2019-05-19T02:27:50.378Z,16.50
2019-05-19T02:30:58.910Z,16.50
2019-05-19T02:33:46.788Z,16.50
2019-05-19T02:36:34.585Z,16.50
2019-05-19T02:39:22.386Z,16.40
2019-05-19T02:42:11.058Z,16.40
2019-05-19T02:45:00.179Z,16.40
2019-05-19T02:48:08.676Z,16.30
2019-05-19T02:51:17.197Z,16.40
2019-05-19T02:54:06.012Z,16.40
2019-05-19T02:56:53.873Z,16.40
2019-05-19T02:59:41.676Z,16.40
2019-05-19T03:02:29.493Z,16.30
2019-05-19T03:05:17.422Z,16.40
2019-05-19T03:07:57.692Z,16.40
2019-05-19T03:10:38.621Z,16.30
2019-05-19T03:19:17.891Z,16.50
2019-05-19T03:21:58.190Z,16.40
2019-05-19T03:24:39.047Z,16.30
2019-05-19T03:27:19.411Z,16.30
2019-05-19T03:30:02.141Z,16.30
2019-05-19T03:32:44.846Z,16.30
2019-05-19T03:35:26.151Z,16.20
2019-05-19T03:38:06.997Z,16.20
2019-05-19T03:40:47.496Z,16.20
2019-05-19T03:43:27.892Z,16.20
2019-05-19T03:46:08.724Z,16.20
2019-05-19T03:48:49.208Z,16.20
2019-05-19T03:51:31.916Z,16.20
2019-05-19T03:54:13.095Z,16.20
2019-05-19T03:56:53.613Z,16.20
2019-05-19T03:59:34.385Z,16.20
2019-05-19T04:02:15.024Z,16.20
2019-05-19T04:04:55.831Z,16.10
2019-05-19T04:07:36.530Z,16.20
2019-05-19T04:10:17.499Z,16.20
2019-05-19T04:12:58.752Z,16.20
2019-05-19T04:15:39.195Z,16.20
2019-05-19T04:18:20.214Z,16.10
2019-05-19T04:21:01.309Z,16.10
2019-05-19T04:23:42.245Z,16.00
2019-05-19T04:26:22.707Z,15.90
2019-05-19T04:29:03.728Z,16.00
2019-05-19T04:31:44.478Z,16.00
2019-05-19T04:34:25.673Z,16.10
2019-05-19T04:37:06.148Z,16.10
2019-05-19T04:39:46.810Z,16.00
2019-05-19T04:42:27.375Z,16.00
2019-05-19T04:45:08.518Z,16.10
2019-05-19T04:47:49.140Z,16.20
2019-05-19T04:50:30.027Z,16.10
2019-05-19T04:53:10.774Z,16.20
2019-05-19T04:55:51.746Z,16.10
2019-05-19T04:58:32.438Z,16.10
2019-05-19T05:01:13.058Z,16.20
2019-05-19T05:03:53.526Z,16.10
2019-05-19T05:06:34.330Z,16.10
2019-05-19T05:09:15.112Z,16.10
2019-05-19T05:11:56.024Z,16.10
2019-05-19T05:14:36.389Z,16.10
2019-05-19T05:17:16.870Z,16.20
2019-05-19T05:19:57.138Z,16.10
2019-05-19T05:22:37.881Z,16.20
2019-05-19T05:25:18.448Z,16.20
2019-05-19T05:27:59.271Z,16.10
2019-05-19T05:30:40.193Z,16.20
2019-05-19T05:33:20.551Z,16.20
2019-05-19T05:36:01.323Z,16.20
2019-05-19T05:38:42.083Z,16.20
2019-05-19T05:41:22.609Z,16.20
2019-05-19T05:44:03.392Z,16.20
2019-05-19T05:46:44.406Z,16.20
2019-05-19T05:49:25.286Z,16.20
2019-05-19T05:52:06.226Z,16.10
2019-05-19T05:54:47.483Z,16.20
2019-05-19T05:57:28.705Z,16.20
2019-05-19T06:00:09.494Z,16.30
2019-05-19T06:02:50.314Z,16.30
2019-05-19T06:05:31.201Z,16.20
2019-05-19T06:08:12.130Z,16.20
2019-05-19T06:10:53.029Z,16.20
2019-05-19T06:13:33.598Z,16.20
2019-05-19T06:16:14.170Z,16.20
2019-05-19T06:18:56.794Z,16.20
2019-05-19T06:21:37.844Z,16.40
2019-05-19T06:24:18.158Z,16.30
2019-05-19T06:26:58.614Z,16.30
2019-05-19T06:29:39.222Z,16.30
2019-05-19T06:32:22.147Z,16.30
2019-05-19T06:35:03.197Z,16.40
2019-05-19T06:37:43.693Z,16.30
2019-05-19T06:40:24.566Z,16.30
2019-05-19T06:43:04.932Z,16.40
2019-05-19T06:45:46.018Z,16.40
2019-05-19T06:48:26.682Z,16.40
2019-05-19T06:51:07.544Z,16.40
2019-05-19T06:53:48.603Z,16.40
2019-05-19T06:56:28.944Z,16.50
2019-05-19T06:59:09.758Z,16.50
2019-05-19T07:01:50.074Z,16.50
2019-05-19T07:04:31.090Z,16.60
2019-05-19T07:07:11.584Z,16.50
2019-05-19T07:09:58.632Z,16.50
2019-05-19T07:15:16.515Z,16.50
2019-05-19T07:17:57.304Z,16.50
2019-05-19T07:20:37.830Z,16.60
2019-05-19T07:23:27.776Z,16.60
2019-05-19T07:26:00.958Z,16.50
2019-05-19T07:28:42.153Z,16.70
2019-05-19T07:31:22.990Z,16.80
2019-05-19T07:34:03.608Z,17.00
2019-05-19T07:36:44.147Z,16.90
2019-05-19T07:39:25.046Z,16.80
2019-05-19T07:42:05.627Z,16.70
2019-05-19T07:44:46.422Z,16.80
2019-05-19T07:47:27.048Z,16.90
2019-05-19T07:50:08.034Z,16.90
2019-05-19T07:52:48.902Z,16.90
2019-05-19T07:55:30.238Z,16.80
2019-05-19T07:58:11.335Z,16.80
2019-05-19T08:00:51.915Z,16.80
2019-05-19T08:03:32.826Z,17.00
2019-05-19T08:06:13.622Z,17.20
2019-05-19T08:08:54.327Z,17.10
2019-05-19T08:11:35.244Z,17.10
2019-05-19T08:14:16.442Z,17.00
2019-05-19T08:16:57.272Z,17.00
2019-05-19T08:19:37.647Z,17.00
2019-05-19T08:22:18.106Z,17.00
2019-05-19T08:24:59.224Z,17.10
2019-05-19T08:27:40.204Z,17.20
2019-05-19T08:30:09.181Z,17.10
2019-05-19T08:32:57.050Z,17.10
2019-05-19T08:35:44.818Z,17.00
2019-05-19T08:38:32.741Z,17.20
2019-05-19T08:41:01.366Z,17.40
2019-05-19T08:43:49.290Z,17.40
2019-05-19T08:46:37.092Z,17.40
2019-05-19T08:49:25.136Z,17.50
2019-05-19T08:51:53.657Z,17.40
2019-05-19T08:54:41.602Z,17.40
2019-05-19T08:57:29.470Z,17.50
2019-05-19T09:00:17.495Z,17.60
2019-05-19T09:03:05.578Z,17.60
2019-05-19T09:05:53.349Z,17.50
2019-05-19T09:08:33.980Z,17.50
2019-05-19T09:11:14.334Z,17.50
2019-05-19T09:13:54.950Z,17.50
2019-05-19T09:16:35.634Z,17.40
2019-05-19T09:19:16.824Z,17.50
2019-05-19T09:21:57.128Z,17.60
2019-05-19T09:24:38.160Z,17.60
2019-05-19T09:27:19.206Z,17.70
2019-05-19T09:29:59.803Z,17.80
2019-05-19T09:32:40.647Z,17.70
2019-05-19T09:35:21.850Z,17.80
2019-05-19T09:38:02.563Z,17.80
2019-05-19T09:40:43.453Z,17.80
2019-05-19T09:43:24.163Z,17.80
2019-05-19T09:46:05.734Z,17.80
2019-05-19T09:48:46.529Z,17.80
2019-05-19T09:51:27.285Z,17.80
2019-05-19T09:54:07.858Z,17.80
2019-05-19T09:56:48.863Z,17.80
2019-05-19T09:59:29.936Z,17.80
2019-05-19T10:02:10.509Z,17.80
2019-05-19T10:04:51.562Z,17.90
2019-05-19T10:07:32.667Z,17.90
2019-05-19T10:10:13.306Z,17.90
2019-05-19T10:12:54.325Z,17.90
2019-05-19T10:15:35.477Z,17.90
2019-05-19T10:18:15.843Z,17.90
2019-05-19T10:20:56.917Z,18.00
2019-05-19T10:23:37.820Z,18.00
2019-05-19T10:26:18.752Z,18.00
2019-05-19T10:28:59.822Z,18.00
2019-05-19T10:31:40.201Z,18.10
2019-05-19T10:34:21.014Z,18.00
2019-05-19T10:37:01.706Z,18.00
2019-05-19T10:39:42.421Z,18.00
2019-05-19T10:42:23.518Z,18.10
2019-05-19T10:45:04.860Z,18.10
2019-05-19T10:47:45.538Z,18.00
2019-05-19T10:50:25.999Z,18.00
2019-05-19T10:53:07.091Z,18.00
2019-05-19T10:55:48.161Z,18.00
2019-05-19T10:58:28.733Z,18.00
2019-05-19T11:01:10.129Z,18.00
2019-05-19T11:03:50.446Z,18.00
2019-05-19T11:06:31.399Z,18.10
2019-05-19T11:09:12.190Z,18.10
2019-05-19T11:11:53.077Z,18.00
2019-05-19T11:14:33.797Z,18.00
2019-05-19T11:17:15.091Z,18.00
2019-05-19T11:19:55.599Z,18.00
2019-05-19T11:22:36.732Z,18.00
2019-05-19T11:25:31.587Z,18.10
2019-05-19T11:28:00.539Z,18.20
2019-05-19T11:30:41.388Z,18.10
2019-05-19T11:33:21.743Z,18.30
2019-05-19T11:35:50.241Z,18.70
2019-05-19T11:38:38.021Z,18.50
2019-05-19T11:41:25.809Z,18.30
2019-05-19T11:44:13.574Z,18.30
2019-05-19T11:47:01.410Z,18.30
2019-05-19T11:49:49.465Z,18.30
2019-05-19T11:52:37.645Z,18.30
2019-05-19T11:55:25.755Z,18.20
2019-05-19T11:58:13.534Z,18.20
2019-05-19T12:01:01.330Z,18.30
2019-05-19T12:03:49.104Z,18.30
2019-05-19T12:06:39.743Z,18.30
2019-05-19T12:09:26.965Z,18.30
2019-05-19T12:12:14.745Z,18.30
2019-05-19T12:18:01.374Z,18.30
2019-05-19T12:20:49.479Z,18.40
2019-05-19T12:23:37.414Z,18.40
2019-05-19T12:26:25.292Z,18.30
2019-05-19T12:29:13.075Z,18.40
2019-05-19T12:32:00.931Z,18.40
2019-05-19T12:34:48.718Z,18.40
2019-05-19T12:37:36.790Z,18.40
2019-05-19T12:40:24.837Z,18.40
2019-05-19T12:43:12.716Z,18.40
2019-05-19T12:46:00.886Z,18.40
2019-05-19T12:48:48.677Z,18.40
2019-05-19T12:51:36.449Z,18.50
2019-05-19T12:54:24.545Z,18.40
2019-05-19T12:57:12.662Z,18.40
2019-05-19T13:00:00.803Z,18.30
2019-05-19T13:02:48.599Z,18.30
2019-05-19T13:05:36.779Z,18.60
2019-05-19T13:08:17.663Z,18.70
2019-05-19T13:10:58.285Z,18.50
2019-05-19T13:13:39.073Z,18.50
2019-05-19T13:16:20.100Z,18.50
2019-05-19T13:19:00.772Z,18.50
2019-05-19T13:21:41.456Z,18.50
2019-05-19T13:24:21.766Z,18.60
2019-05-19T13:27:02.342Z,18.70
2019-05-19T13:29:43.454Z,18.70
2019-05-19T13:32:24.890Z,18.70
2019-05-19T13:35:05.567Z,18.70
2019-05-19T13:37:46.078Z,18.60
2019-05-19T13:40:26.417Z,18.60
2019-05-19T13:43:07.790Z,18.50
2019-05-19T13:45:48.935Z,18.50
2019-05-19T13:48:29.606Z,18.50
2019-05-19T13:51:10.478Z,18.50
2019-05-19T13:53:51.075Z,18.70
2019-05-19T13:56:32.435Z,18.80
2019-05-19T13:59:12.768Z,18.80
2019-05-19T14:01:53.553Z,18.70
2019-05-19T14:04:35.076Z,18.70
2019-05-19T14:07:15.760Z,18.60
2019-05-19T14:09:56.551Z,18.50
2019-05-19T14:12:37.706Z,18.50
2019-05-19T14:15:18.782Z,18.60
2019-05-19T14:17:59.426Z,18.60
2019-05-19T14:20:42.106Z,18.50
2019-05-19T14:23:22.374Z,18.60
2019-05-19T14:26:03.275Z,18.50
2019-05-19T14:28:44.212Z,18.60
2019-05-19T14:31:25.266Z,18.60
2019-05-19T14:34:06.320Z,18.60
2019-05-19T14:36:47.280Z,18.60
2019-05-19T14:39:28.332Z,18.60
2019-05-19T14:42:10.572Z,18.60
2019-05-19T14:44:51.733Z,18.60
2019-05-19T14:47:32.712Z,18.60
2019-05-19T14:50:13.638Z,18.70
2019-05-19T14:52:54.795Z,18.70
2019-05-19T14:55:35.271Z,18.60
2019-05-19T14:58:16.396Z,18.70
2019-05-19T15:00:56.983Z,18.70
2019-05-19T15:03:37.797Z,18.60
2019-05-19T15:06:18.421Z,18.60
2019-05-19T15:08:58.853Z,18.70
2019-05-19T15:11:39.602Z,18.90
2019-05-19T15:14:20.610Z,18.90
2019-05-19T15:17:00.877Z,18.90
2019-05-19T15:22:25.153Z,18.90
2019-05-19T15:25:05.423Z,18.80
2019-05-19T15:27:34.189Z,18.80
2019-05-19T15:30:22.191Z,18.80
2019-05-19T15:33:09.963Z,18.90
2019-05-19T15:35:57.771Z,19.00
2019-05-19T15:38:45.590Z,19.00
2019-05-19T15:41:33.837Z,19.00
2019-05-19T15:44:21.779Z,19.00
2019-05-19T15:47:09.600Z,19.00
2019-05-19T15:49:57.462Z,18.90
2019-05-19T15:52:38.058Z,18.90
2019-05-19T15:55:19.094Z,19.00
2019-05-19T15:58:15.262Z,18.90
2019-05-19T16:00:42.742Z,18.90
2019-05-19T16:03:23.613Z,19.00
2019-05-19T16:06:04.078Z,19.00
2019-05-19T16:08:44.935Z,19.00
2019-05-19T16:11:25.870Z,19.00
2019-05-19T16:14:07.468Z,19.00
2019-05-19T16:16:48.755Z,19.00
2019-05-19T16:19:31.114Z,19.00
2019-05-19T16:22:12.046Z,18.90
2019-05-19T16:24:52.817Z,19.00
2019-05-19T16:27:33.775Z,19.00
2019-05-19T16:30:14.274Z,19.10
2019-05-19T16:32:54.735Z,19.00
2019-05-19T16:35:35.697Z,19.10
2019-05-19T16:38:16.515Z,18.90
2019-05-19T16:40:57.405Z,18.90
2019-05-19T16:43:37.712Z,19.00
2019-05-19T16:46:18.283Z,19.00
2019-05-19T16:49:01.518Z,19.00
2019-05-19T16:51:42.531Z,19.00
2019-05-19T16:54:28.143Z,19.00
2019-05-19T16:57:09.379Z,19.00
2019-05-19T16:59:49.691Z,19.10
2019-05-19T17:02:30.633Z,19.00
2019-05-19T17:05:11.162Z,19.10
2019-05-19T17:07:52.137Z,19.10
2019-05-19T17:10:33.532Z,19.00
2019-05-19T17:13:14.071Z,19.00
2019-05-19T17:15:55.119Z,19.10
2019-05-19T17:18:36.120Z,19.00
2019-05-19T17:21:16.611Z,19.00
2019-05-19T17:23:57.504Z,19.00
2019-05-19T17:26:38.349Z,19.00
2019-05-19T17:29:19.126Z,19.00
2019-05-19T17:32:05.954Z,19.10
2019-05-19T17:34:42.622Z,19.10
2019-05-19T17:37:23.514Z,19.10
2019-05-19T17:40:04.057Z,19.10
2019-05-19T17:42:44.868Z,19.10
2019-05-19T17:45:25.955Z,19.10
2019-05-19T17:48:10.115Z,19.10
2019-05-19T17:50:49.567Z,19.10
2019-05-19T17:53:30.350Z,19.00
2019-05-19T17:56:11.101Z,19.00
2019-05-19T17:58:51.535Z,19.00
2019-05-19T18:01:32.241Z,19.00
2019-05-19T18:04:13.082Z,19.00
2019-05-19T18:06:53.670Z,19.10
2019-05-19T18:09:34.677Z,19.00
2019-05-19T18:12:15.046Z,19.00
2019-05-19T18:14:56.079Z,19.00
2019-05-19T18:17:36.916Z,19.00
2019-05-19T18:20:23.821Z,19.00
2019-05-19T18:23:00.386Z,19.00
2019-05-19T18:25:41.202Z,19.00
2019-05-19T18:28:21.667Z,19.00
2019-05-19T18:31:02.196Z,19.00
2019-05-19T18:33:43.298Z,19.00
2019-05-19T18:36:23.840Z,19.00
2019-05-19T18:39:04.723Z,19.00
2019-05-19T18:41:45.383Z,19.00
2019-05-19T18:44:25.938Z,19.00
2019-05-19T18:47:06.602Z,19.00
2019-05-19T18:49:47.060Z,19.10
2019-05-19T18:52:27.647Z,19.10
2019-05-19T18:55:08.564Z,19.10
2019-05-19T18:57:49.104Z,19.00
2019-05-19T19:00:33.049Z,19.00
2019-05-19T19:03:13.749Z,19.00
2019-05-19T19:05:54.953Z,19.00
2019-05-19T19:11:19.218Z,19.00
2019-05-19T19:16:42.672Z,19.00
2019-05-19T19:19:23.179Z,19.10
2019-05-19T19:22:03.791Z,18.90
2019-05-19T19:24:45.012Z,19.00
2019-05-19T19:27:25.857Z,19.00
2019-05-19T19:30:06.537Z,19.00
2019-05-19T19:32:47.660Z,19.00
2019-05-19T19:35:38.315Z,19.00
2019-05-19T19:38:11.140Z,19.00
2019-05-19T19:40:54.362Z,19.00
2019-05-19T19:43:36.611Z,19.00
2019-05-19T19:46:17.058Z,19.10
2019-05-19T19:48:57.442Z,19.00
2019-05-19T19:51:38.517Z,19.10
2019-05-19T19:54:19.266Z,19.10
2019-05-19T19:57:00.587Z,19.00
2019-05-19T19:59:41.884Z,19.00
2019-05-19T20:02:22.655Z,19.00
2019-05-19T20:05:03.807Z,19.00
2019-05-19T20:07:44.822Z,19.00
2019-05-19T20:10:25.539Z,19.00
2019-05-19T20:13:06.235Z,19.00
2019-05-19T20:15:47.123Z,18.90
2019-05-19T20:18:27.977Z,19.00
2019-05-19T20:21:08.942Z,19.00
2019-05-19T20:23:49.832Z,19.00
2019-05-19T20:26:30.803Z,19.00
2019-05-19T20:29:11.240Z,19.00
2019-05-19T20:31:51.950Z,19.00
2019-05-19T20:34:33.062Z,19.10
2019-05-19T20:37:15.279Z,19.00
2019-05-19T20:39:55.964Z,19.00
2019-05-19T20:42:36.304Z,19.00
2019-05-19T20:45:17.070Z,19.00
2019-05-19T20:47:57.844Z,19.00
2019-05-19T20:50:38.874Z,19.00
2019-05-19T20:53:19.582Z,19.00
2019-05-19T20:55:59.968Z,19.00
2019-05-19T20:58:40.475Z,19.00
2019-05-19T21:01:08.897Z,18.90
2019-05-19T21:03:56.682Z,18.90
2019-05-19T21:06:44.477Z,19.00
2019-05-19T21:09:32.254Z,18.90
2019-05-19T21:12:20.120Z,19.00
2019-05-19T21:15:08.218Z,18.90
2019-05-19T21:17:56.003Z,18.80
2019-05-19T21:20:43.820Z,18.90
2019-05-19T21:23:31.674Z,18.90
2019-05-19T21:26:19.476Z,18.90
2019-05-19T21:29:07.270Z,19.00
2019-05-19T21:31:55.044Z,18.90
2019-05-19T21:34:42.841Z,18.90
2019-05-19T21:37:30.952Z,18.90
2019-05-19T21:40:18.790Z,18.70
2019-05-19T21:43:06.834Z,18.60
2019-05-19T21:45:54.646Z,18.60
2019-05-19T21:48:35.705Z,18.70
2019-05-19T21:51:16.235Z,18.70
2019-05-19T21:53:57.071Z,18.80
2019-05-19T21:56:37.553Z,18.70
2019-05-19T21:59:18.483Z,18.70
2019-05-19T22:01:59.269Z,18.80
2019-05-19T22:04:40.075Z,18.70
2019-05-19T22:07:40.271Z,18.60
2019-05-19T22:10:20.867Z,18.70
2019-05-19T22:13:01.577Z,18.70
2019-05-19T22:15:42.586Z,18.80
2019-05-19T22:18:23.597Z,18.80
2019-05-19T22:21:04.820Z,19.00
2019-05-19T22:23:45.493Z,18.90
2019-05-19T22:26:26.167Z,18.90
2019-05-19T22:29:06.566Z,18.90
2019-05-19T22:31:47.217Z,19.00
2019-05-19T22:34:28.445Z,18.90
2019-05-19T22:37:08.914Z,18.90
2019-05-19T22:39:49.497Z,18.90
2019-05-19T22:42:30.287Z,18.90
2019-05-19T22:45:10.666Z,18.90
2019-05-19T22:47:51.806Z,19.00
2019-05-19T22:50:32.873Z,18.90
2019-05-19T22:53:13.485Z,18.90
2019-05-19T22:55:54.734Z,18.90
2019-05-19T22:58:35.310Z,18.80
2019-05-19T23:01:16.101Z,18.80
2019-05-19T23:03:56.730Z,18.70
2019-05-19T23:06:37.807Z,18.60
2019-05-19T23:09:18.754Z,18.70
2019-05-19T23:11:59.424Z,18.70
2019-05-19T23:14:40.034Z,18.90
2019-05-19T23:17:20.998Z,19.00
2019-05-19T23:20:01.471Z,19.00
2019-05-19T23:22:42.791Z,19.00
2019-05-19T23:25:23.368Z,19.00
2019-05-19T23:28:04.446Z,18.90
2019-05-19T23:30:44.883Z,19.00
2019-05-19T23:33:25.520Z,19.00
2019-05-19T23:36:06.159Z,19.00
2019-05-19T23:38:47.258Z,19.00
2019-05-19T23:41:27.822Z,18.90
2019-05-19T23:44:08.695Z,18.80
2019-05-19T23:46:49.030Z,18.90
2019-05-19T23:49:29.841Z,18.80
2019-05-19T23:52:10.221Z,18.90
2019-05-19T23:54:50.984Z,18.90
2019-05-19T23:57:31.716Z,18.90
